sensor_id;sensor_type;location;lat;lon;timestamp;temperature;humidity
3756;DHT22;1893;52.526;13.360;2023-09-12T00:00:37;20.50;99.90
3756;DHT22;1893;52.526;13.360;2023-09-12T00:03:03;20.40;99.90
3756;DHT22;1893;52.526;13.360;2023-09-12T00:05:28;20.40;99.90
3756;DHT22;1893;52.526;13.360;2023-09-12T00:07:54;20.40;99.90
3756;DHT22;1893;52.526;13.360;2023-09-12T00:10:20;20.40;99.90
3756;DHT22;1893;52.526;13.360;2023-09-12T00:12:45;20.30;99.90
3756;DHT22;1893;52.526;13.360;2023-09-12T00:15:11;20.30;99.90
3756;DHT22;1893;52.526;13.360;2023-09-12T00:17:36;20.30;99.90
3756;DHT22;1893;52.526;13.360;2023-09-12T00:20:02;20.30;99.90
3756;DHT22;1893;52.526;13.360;2023-09-12T00:22:29;20.30;99.90
3756;DHT22;1893;52.526;13.360;2023-09-12T00:24:55;20.20;99.90
3756;DHT22;1893;52.526;13.360;2023-09-12T00:27:20;20.20;99.90
3756;DHT22;1893;52.526;13.360;2023-09-12T00:29:46;20.20;99.90
3756;DHT22;1893;52.526;13.360;2023-09-12T00:32:12;20.20;99.90
3756;DHT22;1893;52.526;13.360;2023-09-12T00:34:37;20.20;99.90
3756;DHT22;1893;52.526;13.360;2023-09-12T00:37:03;20.30;99.90
3756;DHT22;1893;52.526;13.360;2023-09-12T00:39:28;20.30;99.90
3756;DHT22;1893;52.526;13.360;2023-09-12T00:41:54;20.40;99.90
3756;DHT22;1893;52.526;13.360;2023-09-12T00:44:19;20.50;99.90
3756;DHT22;1893;52.526;13.360;2023-09-12T00:46:46;20.50;99.90
3756;DHT22;1893;52.526;13.360;2023-09-12T00:49:13;20.40;99.90
3756;DHT22;1893;52.526;13.360;2023-09-12T00:51:39;20.30;99.90
3756;DHT22;1893;52.526;13.360;2023-09-12T00:54:05;20.20;99.90
3756;DHT22;1893;52.526;13.360;2023-09-12T00:56:32;20.00;99.90
3756;DHT22;1893;52.526;13.360;2023-09-12T00:58:58;20.00;99.90
3756;DHT22;1893;52.526;13.360;2023-09-12T01:01:23;19.90;99.90
3756;DHT22;1893;52.526;13.360;2023-09-12T01:03:49;19.80;99.90
3756;DHT22;1893;52.526;13.360;2023-09-12T01:06:18;19.90;99.90
3756;DHT22;1893;52.526;13.360;2023-09-12T01:08:45;19.90;99.90
3756;DHT22;1893;52.526;13.360;2023-09-12T01:11:12;19.90;99.90
3756;DHT22;1893;52.526;13.360;2023-09-12T01:13:38;19.80;99.90
3756;DHT22;1893;52.526;13.360;2023-09-12T01:16:03;19.90;99.90
3756;DHT22;1893;52.526;13.360;2023-09-12T01:18:29;19.80;99.90
3756;DHT22;1893;52.526;13.360;2023-09-12T01:28:59;19.80;99.90
3756;DHT22;1893;52.526;13.360;2023-09-12T01:31:26;19.80;99.90
3756;DHT22;1893;52.526;13.360;2023-09-12T01:33:56;19.70;99.90
3756;DHT22;1893;52.526;13.360;2023-09-12T01:36:22;19.60;99.90
3756;DHT22;1893;52.526;13.360;2023-09-12T01:38:48;19.60;99.90
3756;DHT22;1893;52.526;13.360;2023-09-12T01:41:14;19.50;99.90
3756;DHT22;1893;52.526;13.360;2023-09-12T01:43:41;19.40;99.90
3756;DHT22;1893;52.526;13.360;2023-09-12T01:46:08;19.40;99.90
3756;DHT22;1893;52.526;13.360;2023-09-12T01:48:35;19.30;99.90
3756;DHT22;1893;52.526;13.360;2023-09-12T01:51:02;19.30;99.90
3756;DHT22;1893;52.526;13.360;2023-09-12T01:53:29;19.30;99.90
3756;DHT22;1893;52.526;13.360;2023-09-12T01:55:56;19.30;99.90
3756;DHT22;1893;52.526;13.360;2023-09-12T01:58:25;19.30;99.90
3756;DHT22;1893;52.526;13.360;2023-09-12T02:00:51;19.30;99.90
3756;DHT22;1893;52.526;13.360;2023-09-12T02:03:17;19.20;99.90
3756;DHT22;1893;52.526;13.360;2023-09-12T02:05:42;19.20;99.90
3756;DHT22;1893;52.526;13.360;2023-09-12T02:08:08;19.10;99.90
3756;DHT22;1893;52.526;13.360;2023-09-12T02:10:34;19.30;99.90
3756;DHT22;1893;52.526;13.360;2023-09-12T02:12:59;19.30;99.90
3756;DHT22;1893;52.526;13.360;2023-09-12T02:15:25;19.20;99.90
3756;DHT22;1893;52.526;13.360;2023-09-12T02:17:51;19.30;99.90
3756;DHT22;1893;52.526;13.360;2023-09-12T02:20:17;19.20;99.90
3756;DHT22;1893;52.526;13.360;2023-09-12T02:22:43;19.30;99.90
3756;DHT22;1893;52.526;13.360;2023-09-12T02:25:09;19.20;99.90
3756;DHT22;1893;52.526;13.360;2023-09-12T02:27:35;19.30;99.90
3756;DHT22;1893;52.526;13.360;2023-09-12T02:30:00;19.20;99.90
3756;DHT22;1893;52.526;13.360;2023-09-12T02:32:26;19.10;99.90
3756;DHT22;1893;52.526;13.360;2023-09-12T02:34:51;19.10;99.90
3756;DHT22;1893;52.526;13.360;2023-09-12T02:37:19;19.00;99.90
3756;DHT22;1893;52.526;13.360;2023-09-12T02:39:44;19.10;99.90
3756;DHT22;1893;52.526;13.360;2023-09-12T02:42:10;19.10;99.90
3756;DHT22;1893;52.526;13.360;2023-09-12T02:44:36;19.10;99.90
3756;DHT22;1893;52.526;13.360;2023-09-12T02:47:02;19.00;99.90
3756;DHT22;1893;52.526;13.360;2023-09-12T02:49:28;19.10;99.90
3756;DHT22;1893;52.526;13.360;2023-09-12T02:51:53;19.10;99.90
3756;DHT22;1893;52.526;13.360;2023-09-12T02:54:19;19.20;99.90
3756;DHT22;1893;52.526;13.360;2023-09-12T02:56:45;19.20;99.90
3756;DHT22;1893;52.526;13.360;2023-09-12T02:59:10;19.10;99.90
3756;DHT22;1893;52.526;13.360;2023-09-12T03:01:36;19.10;99.90
3756;DHT22;1893;52.526;13.360;2023-09-12T03:04:02;19.00;99.90
3756;DHT22;1893;52.526;13.360;2023-09-12T03:06:28;19.10;99.90
3756;DHT22;1893;52.526;13.360;2023-09-12T03:08:55;19.10;99.90
3756;DHT22;1893;52.526;13.360;2023-09-12T03:11:20;19.10;99.90
3756;DHT22;1893;52.526;13.360;2023-09-12T03:13:46;19.10;99.90
3756;DHT22;1893;52.526;13.360;2023-09-12T03:16:12;19.10;99.90
3756;DHT22;1893;52.526;13.360;2023-09-12T03:18:38;19.20;99.90
3756;DHT22;1893;52.526;13.360;2023-09-12T03:21:04;19.20;99.90
3756;DHT22;1893;52.526;13.360;2023-09-12T03:23:30;19.20;99.90
3756;DHT22;1893;52.526;13.360;2023-09-12T03:26:03;19.10;99.90
3756;DHT22;1893;52.526;13.360;2023-09-12T03:28:30;19.10;99.90
3756;DHT22;1893;52.526;13.360;2023-09-12T03:31:13;19.00;99.90
3756;DHT22;1893;52.526;13.360;2023-09-12T03:33:42;19.00;99.90
3756;DHT22;1893;52.526;13.360;2023-09-12T03:36:09;19.00;99.90
3756;DHT22;1893;52.526;13.360;2023-09-12T03:38:35;19.00;99.90
3756;DHT22;1893;52.526;13.360;2023-09-12T03:41:01;19.00;99.90
3756;DHT22;1893;52.526;13.360;2023-09-12T03:43:27;19.00;99.90
3756;DHT22;1893;52.526;13.360;2023-09-12T03:45:53;19.10;99.90
3756;DHT22;1893;52.526;13.360;2023-09-12T03:48:19;19.00;99.90
3756;DHT22;1893;52.526;13.360;2023-09-12T03:50:45;18.90;99.90
3756;DHT22;1893;52.526;13.360;2023-09-12T03:53:11;18.90;99.90
3756;DHT22;1893;52.526;13.360;2023-09-12T03:55:37;18.80;99.90
3756;DHT22;1893;52.526;13.360;2023-09-12T03:58:03;18.90;99.90
3756;DHT22;1893;52.526;13.360;2023-09-12T04:00:28;18.90;99.90
3756;DHT22;1893;52.526;13.360;2023-09-12T04:02:54;18.90;99.90
3756;DHT22;1893;52.526;13.360;2023-09-12T04:05:20;18.80;99.90
3756;DHT22;1893;52.526;13.360;2023-09-12T04:07:46;18.80;99.90
3756;DHT22;1893;52.526;13.360;2023-09-12T04:10:11;18.90;99.90
3756;DHT22;1893;52.526;13.360;2023-09-12T04:12:40;18.90;99.90
3756;DHT22;1893;52.526;13.360;2023-09-12T04:15:06;18.90;99.90
3756;DHT22;1893;52.526;13.360;2023-09-12T04:17:32;18.90;99.90
3756;DHT22;1893;52.526;13.360;2023-09-12T04:19:57;18.90;99.90
3756;DHT22;1893;52.526;13.360;2023-09-12T04:22:23;18.80;99.90
3756;DHT22;1893;52.526;13.360;2023-09-12T04:24:48;18.70;99.90
3756;DHT22;1893;52.526;13.360;2023-09-12T04:27:14;18.60;99.90
3756;DHT22;1893;52.526;13.360;2023-09-12T04:29:40;18.60;99.90
3756;DHT22;1893;52.526;13.360;2023-09-12T04:32:05;18.70;99.90
3756;DHT22;1893;52.526;13.360;2023-09-12T04:34:31;18.70;99.90
3756;DHT22;1893;52.526;13.360;2023-09-12T04:36:57;18.80;99.90
3756;DHT22;1893;52.526;13.360;2023-09-12T04:39:23;18.80;99.90
3756;DHT22;1893;52.526;13.360;2023-09-12T04:41:48;18.90;99.90
3756;DHT22;1893;52.526;13.360;2023-09-12T04:44:14;18.80;99.90
3756;DHT22;1893;52.526;13.360;2023-09-12T04:46:41;18.80;99.90
3756;DHT22;1893;52.526;13.360;2023-09-12T04:49:06;18.80;99.90
3756;DHT22;1893;52.526;13.360;2023-09-12T04:51:32;18.70;99.90
3756;DHT22;1893;52.526;13.360;2023-09-12T04:53:57;18.70;99.90
3756;DHT22;1893;52.526;13.360;2023-09-12T04:56:23;18.80;99.90
3756;DHT22;1893;52.526;13.360;2023-09-12T04:58:51;18.80;99.90
3756;DHT22;1893;52.526;13.360;2023-09-12T05:01:17;18.80;99.90
3756;DHT22;1893;52.526;13.360;2023-09-12T05:03:43;18.80;99.90
3756;DHT22;1893;52.526;13.360;2023-09-12T05:06:10;18.80;99.90
3756;DHT22;1893;52.526;13.360;2023-09-12T05:08:36;18.80;99.90
3756;DHT22;1893;52.526;13.360;2023-09-12T05:11:01;18.80;99.90
3756;DHT22;1893;52.526;13.360;2023-09-12T05:13:28;18.70;99.90
3756;DHT22;1893;52.526;13.360;2023-09-12T05:15:54;18.80;99.90
3756;DHT22;1893;52.526;13.360;2023-09-12T05:18:21;18.90;99.90
3756;DHT22;1893;52.526;13.360;2023-09-12T05:20:46;19.10;99.90
3756;DHT22;1893;52.526;13.360;2023-09-12T05:23:12;19.30;99.90
3756;DHT22;1893;52.526;13.360;2023-09-12T05:25:37;19.40;99.90
3756;DHT22;1893;52.526;13.360;2023-09-12T05:28:03;19.40;99.90
3756;DHT22;1893;52.526;13.360;2023-09-12T05:30:30;19.40;99.90
3756;DHT22;1893;52.526;13.360;2023-09-12T05:32:55;19.50;99.90
3756;DHT22;1893;52.526;13.360;2023-09-12T05:35:21;19.50;99.90
3756;DHT22;1893;52.526;13.360;2023-09-12T05:37:47;19.60;99.90
3756;DHT22;1893;52.526;13.360;2023-09-12T05:40:13;19.70;99.90
3756;DHT22;1893;52.526;13.360;2023-09-12T05:42:39;19.90;99.90
3756;DHT22;1893;52.526;13.360;2023-09-12T05:45:05;20.00;99.90
3756;DHT22;1893;52.526;13.360;2023-09-12T05:47:31;20.10;99.90
3756;DHT22;1893;52.526;13.360;2023-09-12T05:49:57;20.10;99.90
3756;DHT22;1893;52.526;13.360;2023-09-12T05:52:24;20.10;99.90
3756;DHT22;1893;52.526;13.360;2023-09-12T05:54:50;20.10;99.90
3756;DHT22;1893;52.526;13.360;2023-09-12T05:57:16;20.20;99.90
3756;DHT22;1893;52.526;13.360;2023-09-12T05:59:41;20.20;99.90
3756;DHT22;1893;52.526;13.360;2023-09-12T06:02:07;20.20;99.90
3756;DHT22;1893;52.526;13.360;2023-09-12T06:04:35;20.30;99.90
3756;DHT22;1893;52.526;13.360;2023-09-12T06:07:04;20.40;99.90
3756;DHT22;1893;52.526;13.360;2023-09-12T06:09:30;20.60;99.90
3756;DHT22;1893;52.526;13.360;2023-09-12T06:11:56;20.70;99.90
3756;DHT22;1893;52.526;13.360;2023-09-12T06:14:21;20.80;99.90
3756;DHT22;1893;52.526;13.360;2023-09-12T06:16:47;20.90;99.90
3756;DHT22;1893;52.526;13.360;2023-09-12T06:19:13;20.90;99.90
3756;DHT22;1893;52.526;13.360;2023-09-12T06:21:40;21.00;99.90
3756;DHT22;1893;52.526;13.360;2023-09-12T06:24:13;21.00;99.90
3756;DHT22;1893;52.526;13.360;2023-09-12T06:26:39;21.10;99.90
3756;DHT22;1893;52.526;13.360;2023-09-12T06:29:05;21.20;99.90
3756;DHT22;1893;52.526;13.360;2023-09-12T06:31:31;21.40;99.90
3756;DHT22;1893;52.526;13.360;2023-09-12T06:33:57;21.60;99.90
3756;DHT22;1893;52.526;13.360;2023-09-12T06:36:24;21.80;99.90
3756;DHT22;1893;52.526;13.360;2023-09-12T06:38:50;21.90;99.90
3756;DHT22;1893;52.526;13.360;2023-09-12T06:41:19;22.10;99.90
3756;DHT22;1893;52.526;13.360;2023-09-12T06:43:45;22.40;99.90
3756;DHT22;1893;52.526;13.360;2023-09-12T06:46:10;22.90;99.90
3756;DHT22;1893;52.526;13.360;2023-09-12T06:48:36;23.50;99.90
3756;DHT22;1893;52.526;13.360;2023-09-12T06:51:05;23.70;99.90
3756;DHT22;1893;52.526;13.360;2023-09-12T06:53:31;24.00;99.90
3756;DHT22;1893;52.526;13.360;2023-09-12T06:55:56;24.60;99.90
3756;DHT22;1893;52.526;13.360;2023-09-12T06:58:25;24.90;99.90
3756;DHT22;1893;52.526;13.360;2023-09-12T07:00:51;24.90;99.90
3756;DHT22;1893;52.526;13.360;2023-09-12T07:03:17;24.90;99.90
3756;DHT22;1893;52.526;13.360;2023-09-12T07:05:43;25.40;99.90
3756;DHT22;1893;52.526;13.360;2023-09-12T07:08:09;25.50;99.90
3756;DHT22;1893;52.526;13.360;2023-09-12T07:10:35;25.40;99.90
3756;DHT22;1893;52.526;13.360;2023-09-12T07:13:01;24.90;99.90
3756;DHT22;1893;52.526;13.360;2023-09-12T07:15:27;24.90;99.90
3756;DHT22;1893;52.526;13.360;2023-09-12T07:17:53;24.90;99.90
3756;DHT22;1893;52.526;13.360;2023-09-12T07:20:19;24.70;99.90
3756;DHT22;1893;52.526;13.360;2023-09-12T07:22:46;24.70;99.90
3756;DHT22;1893;52.526;13.360;2023-09-12T07:25:13;24.70;99.90
3756;DHT22;1893;52.526;13.360;2023-09-12T07:27:39;24.70;99.90
3756;DHT22;1893;52.526;13.360;2023-09-12T07:30:06;24.80;99.90
3756;DHT22;1893;52.526;13.360;2023-09-12T07:32:31;25.00;99.90
3756;DHT22;1893;52.526;13.360;2023-09-12T07:34:57;25.20;99.90
3756;DHT22;1893;52.526;13.360;2023-09-12T07:37:23;25.10;99.90
3756;DHT22;1893;52.526;13.360;2023-09-12T07:39:48;25.10;99.90
3756;DHT22;1893;52.526;13.360;2023-09-12T07:42:14;25.20;99.90
3756;DHT22;1893;52.526;13.360;2023-09-12T07:44:39;25.20;99.90
3756;DHT22;1893;52.526;13.360;2023-09-12T07:47:05;25.20;99.90
3756;DHT22;1893;52.526;13.360;2023-09-12T07:49:31;25.20;99.90
3756;DHT22;1893;52.526;13.360;2023-09-12T07:51:56;25.10;99.90
3756;DHT22;1893;52.526;13.360;2023-09-12T07:54:22;25.30;99.90
3756;DHT22;1893;52.526;13.360;2023-09-12T07:56:48;25.40;99.90
3756;DHT22;1893;52.526;13.360;2023-09-12T07:59:14;25.60;99.90
3756;DHT22;1893;52.526;13.360;2023-09-12T08:01:40;26.00;99.90
3756;DHT22;1893;52.526;13.360;2023-09-12T08:04:06;25.90;99.90
3756;DHT22;1893;52.526;13.360;2023-09-12T08:06:32;26.20;99.90
3756;DHT22;1893;52.526;13.360;2023-09-12T08:08:58;26.40;99.90
3756;DHT22;1893;52.526;13.360;2023-09-12T08:11:24;26.40;99.90
3756;DHT22;1893;52.526;13.360;2023-09-12T08:13:50;26.60;99.90
3756;DHT22;1893;52.526;13.360;2023-09-12T08:16:16;26.90;99.90
3756;DHT22;1893;52.526;13.360;2023-09-12T08:18:42;27.00;99.90
3756;DHT22;1893;52.526;13.360;2023-09-12T08:21:09;27.20;99.90
3756;DHT22;1893;52.526;13.360;2023-09-12T08:23:35;27.70;99.90
3756;DHT22;1893;52.526;13.360;2023-09-12T08:26:01;27.80;99.90
3756;DHT22;1893;52.526;13.360;2023-09-12T08:28:27;28.10;99.90
3756;DHT22;1893;52.526;13.360;2023-09-12T08:30:52;28.00;99.90
3756;DHT22;1893;52.526;13.360;2023-09-12T08:33:18;27.90;99.90
3756;DHT22;1893;52.526;13.360;2023-09-12T08:35:44;27.90;99.90
3756;DHT22;1893;52.526;13.360;2023-09-12T08:38:09;28.10;99.90
3756;DHT22;1893;52.526;13.360;2023-09-12T08:40:35;28.30;99.90
3756;DHT22;1893;52.526;13.360;2023-09-12T08:43:01;28.50;99.90
3756;DHT22;1893;52.526;13.360;2023-09-12T08:45:30;28.20;99.90
3756;DHT22;1893;52.526;13.360;2023-09-12T08:47:59;28.10;99.90
3756;DHT22;1893;52.526;13.360;2023-09-12T08:50:26;28.20;99.90
3756;DHT22;1893;52.526;13.360;2023-09-12T08:52:56;27.90;99.90
3756;DHT22;1893;52.526;13.360;2023-09-12T08:55:21;27.50;99.90
3756;DHT22;1893;52.526;13.360;2023-09-12T08:57:50;27.60;99.90
3756;DHT22;1893;52.526;13.360;2023-09-12T09:00:16;27.60;99.90
3756;DHT22;1893;52.526;13.360;2023-09-12T09:02:42;27.60;99.90
3756;DHT22;1893;52.526;13.360;2023-09-12T09:05:10;27.60;99.90
3756;DHT22;1893;52.526;13.360;2023-09-12T09:07:40;28.00;99.90
3756;DHT22;1893;52.526;13.360;2023-09-12T09:10:07;28.20;99.90
3756;DHT22;1893;52.526;13.360;2023-09-12T09:12:34;28.20;99.90
3756;DHT22;1893;52.526;13.360;2023-09-12T09:17:48;28.60;99.90
3756;DHT22;1893;52.526;13.360;2023-09-12T09:20:25;28.80;99.90
3756;DHT22;1893;52.526;13.360;2023-09-12T09:23:05;29.30;99.90
3756;DHT22;1893;52.526;13.360;2023-09-12T09:25:35;29.30;99.90
3756;DHT22;1893;52.526;13.360;2023-09-12T09:28:19;29.70;99.90
3756;DHT22;1893;52.526;13.360;2023-09-12T09:30:50;29.50;99.90
3756;DHT22;1893;52.526;13.360;2023-09-12T09:33:21;29.00;99.90
3756;DHT22;1893;52.526;13.360;2023-09-12T09:35:48;28.90;99.90
3756;DHT22;1893;52.526;13.360;2023-09-12T09:38:14;29.00;99.90
3756;DHT22;1893;52.526;13.360;2023-09-12T09:40:42;29.00;99.90
3756;DHT22;1893;52.526;13.360;2023-09-12T09:43:09;28.70;99.90
3756;DHT22;1893;52.526;13.360;2023-09-12T09:45:43;28.60;99.90
3756;DHT22;1893;52.526;13.360;2023-09-12T09:48:10;28.70;99.90
3756;DHT22;1893;52.526;13.360;2023-09-12T09:50:36;28.40;99.90
3756;DHT22;1893;52.526;13.360;2023-09-12T09:53:04;28.30;99.90
3756;DHT22;1893;52.526;13.360;2023-09-12T09:55:34;28.10;99.90
3756;DHT22;1893;52.526;13.360;2023-09-12T09:57:59;27.90;99.90
3756;DHT22;1893;52.526;13.360;2023-09-12T10:00:25;28.10;99.90
3756;DHT22;1893;52.526;13.360;2023-09-12T10:02:53;28.20;99.90
3756;DHT22;1893;52.526;13.360;2023-09-12T10:05:21;28.20;99.90
3756;DHT22;1893;52.526;13.360;2023-09-12T10:07:49;28.70;99.90
3756;DHT22;1893;52.526;13.360;2023-09-12T10:10:18;29.30;99.90
3756;DHT22;1893;52.526;13.360;2023-09-12T10:12:56;29.30;99.90
3756;DHT22;1893;52.526;13.360;2023-09-12T10:15:22;29.70;99.90
3756;DHT22;1893;52.526;13.360;2023-09-12T10:17:56;30.30;99.90
3756;DHT22;1893;52.526;13.360;2023-09-12T10:20:27;31.00;99.90
3756;DHT22;1893;52.526;13.360;2023-09-12T10:23:07;32.00;99.90
3756;DHT22;1893;52.526;13.360;2023-09-12T10:25:36;32.10;99.90
3756;DHT22;1893;52.526;13.360;2023-09-12T10:28:06;32.70;99.90
3756;DHT22;1893;52.526;13.360;2023-09-12T10:30:33;33.30;99.90
3756;DHT22;1893;52.526;13.360;2023-09-12T10:33:01;34.00;99.90
3756;DHT22;1893;52.526;13.360;2023-09-12T10:35:30;34.30;99.90
3756;DHT22;1893;52.526;13.360;2023-09-12T10:38:00;34.50;99.90
3756;DHT22;1893;52.526;13.360;2023-09-12T10:40:27;34.40;99.90
3756;DHT22;1893;52.526;13.360;2023-09-12T10:42:55;34.20;99.90
3756;DHT22;1893;52.526;13.360;2023-09-12T10:45:22;34.50;99.90
3756;DHT22;1893;52.526;13.360;2023-09-12T10:47:48;34.30;99.90
3756;DHT22;1893;52.526;13.360;2023-09-12T10:50:14;34.30;99.90
3756;DHT22;1893;52.526;13.360;2023-09-12T10:52:39;34.50;99.90
3756;DHT22;1893;52.526;13.360;2023-09-12T10:55:07;34.90;99.90
3756;DHT22;1893;52.526;13.360;2023-09-12T10:57:33;34.30;99.90
3756;DHT22;1893;52.526;13.360;2023-09-12T11:02:33;33.50;99.90
3756;DHT22;1893;52.526;13.360;2023-09-12T11:05:00;33.10;99.90
3756;DHT22;1893;52.526;13.360;2023-09-12T11:12:45;33.90;99.90
3756;DHT22;1893;52.526;13.360;2023-09-12T11:15:11;33.70;99.90
3756;DHT22;1893;52.526;13.360;2023-09-12T11:17:40;33.00;99.90
3756;DHT22;1893;52.526;13.360;2023-09-12T11:20:07;32.60;99.90
3756;DHT22;1893;52.526;13.360;2023-09-12T11:22:40;32.00;99.90
3756;DHT22;1893;52.526;13.360;2023-09-12T11:25:23;32.00;99.90
3756;DHT22;1893;52.526;13.360;2023-09-12T11:30:22;31.40;99.90
3756;DHT22;1893;52.526;13.360;2023-09-12T11:32:50;31.60;99.90
3756;DHT22;1893;52.526;13.360;2023-09-12T11:35:21;31.20;99.90
3756;DHT22;1893;52.526;13.360;2023-09-12T11:37:53;31.20;99.90
3756;DHT22;1893;52.526;13.360;2023-09-12T11:42:58;31.20;99.90
3756;DHT22;1893;52.526;13.360;2023-09-12T11:45:24;31.10;99.90
3756;DHT22;1893;52.526;13.360;2023-09-12T11:47:50;30.60;99.90
3756;DHT22;1893;52.526;13.360;2023-09-12T11:53:11;30.10;99.90
3756;DHT22;1893;52.526;13.360;2023-09-12T11:55:44;30.00;99.90
3756;DHT22;1893;52.526;13.360;2023-09-12T11:58:12;30.00;99.90
3756;DHT22;1893;52.526;13.360;2023-09-12T12:00:46;30.00;99.90
3756;DHT22;1893;52.526;13.360;2023-09-12T12:03:13;29.70;99.90
3756;DHT22;1893;52.526;13.360;2023-09-12T12:05:39;29.70;99.90
3756;DHT22;1893;52.526;13.360;2023-09-12T12:08:09;29.80;99.90
3756;DHT22;1893;52.526;13.360;2023-09-12T12:10:35;29.80;99.90
3756;DHT22;1893;52.526;13.360;2023-09-12T12:13:03;30.20;99.90
3756;DHT22;1893;52.526;13.360;2023-09-12T12:15:29;30.60;99.90
3756;DHT22;1893;52.526;13.360;2023-09-12T12:17:55;30.30;99.90
3756;DHT22;1893;52.526;13.360;2023-09-12T12:20:22;30.50;99.90
3756;DHT22;1893;52.526;13.360;2023-09-12T12:22:48;30.50;99.90
3756;DHT22;1893;52.526;13.360;2023-09-12T12:25:14;30.30;99.90
3756;DHT22;1893;52.526;13.360;2023-09-12T12:27:41;30.40;99.90
3756;DHT22;1893;52.526;13.360;2023-09-12T12:30:09;30.40;99.90
3756;DHT22;1893;52.526;13.360;2023-09-12T12:32:39;30.50;99.90
3756;DHT22;1893;52.526;13.360;2023-09-12T12:35:05;30.90;99.90
3756;DHT22;1893;52.526;13.360;2023-09-12T12:37:32;31.40;99.90
3756;DHT22;1893;52.526;13.360;2023-09-12T12:39:59;32.10;99.90
3756;DHT22;1893;52.526;13.360;2023-09-12T12:42:34;32.10;99.90
3756;DHT22;1893;52.526;13.360;2023-09-12T12:45:01;31.50;99.90
3756;DHT22;1893;52.526;13.360;2023-09-12T12:47:27;31.50;99.90
3756;DHT22;1893;52.526;13.360;2023-09-12T12:49:54;31.50;99.90
3756;DHT22;1893;52.526;13.360;2023-09-12T12:52:24;31.40;99.90
3756;DHT22;1893;52.526;13.360;2023-09-12T12:54:50;31.20;99.90
3756;DHT22;1893;52.526;13.360;2023-09-12T12:57:21;31.10;99.90
3756;DHT22;1893;52.526;13.360;2023-09-12T12:59:49;31.00;99.90
3756;DHT22;1893;52.526;13.360;2023-09-12T13:02:16;30.60;99.90
3756;DHT22;1893;52.526;13.360;2023-09-12T13:04:42;30.50;99.90
3756;DHT22;1893;52.526;13.360;2023-09-12T13:07:08;30.40;99.90
3756;DHT22;1893;52.526;13.360;2023-09-12T13:09:33;30.50;99.90
3756;DHT22;1893;52.526;13.360;2023-09-12T13:11:59;30.30;99.90
3756;DHT22;1893;52.526;13.360;2023-09-12T13:14:25;30.10;99.90
3756;DHT22;1893;52.526;13.360;2023-09-12T13:16:59;29.90;99.90
3756;DHT22;1893;52.526;13.360;2023-09-12T13:19:26;29.80;99.90
3756;DHT22;1893;52.526;13.360;2023-09-12T13:21:52;30.00;99.90
3756;DHT22;1893;52.526;13.360;2023-09-12T13:24:17;30.00;99.90
3756;DHT22;1893;52.526;13.360;2023-09-12T13:26:43;30.10;99.90
3756;DHT22;1893;52.526;13.360;2023-09-12T13:29:09;30.30;99.90
3756;DHT22;1893;52.526;13.360;2023-09-12T13:31:35;30.30;99.90
3756;DHT22;1893;52.526;13.360;2023-09-12T13:34:01;30.40;99.90
3756;DHT22;1893;52.526;13.360;2023-09-12T13:36:27;30.50;99.90
3756;DHT22;1893;52.526;13.360;2023-09-12T13:38:52;30.30;99.90
3756;DHT22;1893;52.526;13.360;2023-09-12T13:41:18;30.20;99.90
3756;DHT22;1893;52.526;13.360;2023-09-12T13:43:43;30.20;99.90
3756;DHT22;1893;52.526;13.360;2023-09-12T13:46:12;29.90;99.90
3756;DHT22;1893;52.526;13.360;2023-09-12T13:48:38;29.70;99.90
3756;DHT22;1893;52.526;13.360;2023-09-12T13:51:04;29.80;99.90
3756;DHT22;1893;52.526;13.360;2023-09-12T13:53:30;29.80;99.90
3756;DHT22;1893;52.526;13.360;2023-09-12T13:55:55;29.90;99.90
3756;DHT22;1893;52.526;13.360;2023-09-12T13:58:23;29.80;99.90
3756;DHT22;1893;52.526;13.360;2023-09-12T14:00:48;29.80;99.90
3756;DHT22;1893;52.526;13.360;2023-09-12T14:03:14;29.80;99.90
3756;DHT22;1893;52.526;13.360;2023-09-12T14:05:40;29.50;99.90
3756;DHT22;1893;52.526;13.360;2023-09-12T14:08:06;29.40;99.90
3756;DHT22;1893;52.526;13.360;2023-09-12T14:10:32;29.60;99.90
3756;DHT22;1893;52.526;13.360;2023-09-12T14:12:57;29.70;99.90
3756;DHT22;1893;52.526;13.360;2023-09-12T14:15:23;29.40;99.90
3756;DHT22;1893;52.526;13.360;2023-09-12T14:17:48;29.60;99.90
3756;DHT22;1893;52.526;13.360;2023-09-12T14:20:14;29.60;99.90
3756;DHT22;1893;52.526;13.360;2023-09-12T14:22:41;29.50;99.90
3756;DHT22;1893;52.526;13.360;2023-09-12T14:25:08;29.40;99.90
3756;DHT22;1893;52.526;13.360;2023-09-12T14:27:34;29.40;99.90
3756;DHT22;1893;52.526;13.360;2023-09-12T14:29:59;29.20;99.90
3756;DHT22;1893;52.526;13.360;2023-09-12T14:32:25;29.20;99.90
3756;DHT22;1893;52.526;13.360;2023-09-12T14:34:51;29.10;99.90
3756;DHT22;1893;52.526;13.360;2023-09-12T14:37:17;29.10;99.90
3756;DHT22;1893;52.526;13.360;2023-09-12T14:39:42;29.30;99.90
3756;DHT22;1893;52.526;13.360;2023-09-12T14:42:08;29.30;99.90
3756;DHT22;1893;52.526;13.360;2023-09-12T14:44:37;29.40;99.90
3756;DHT22;1893;52.526;13.360;2023-09-12T14:47:03;28.90;99.90
3756;DHT22;1893;52.526;13.360;2023-09-12T14:49:29;28.40;99.90
3756;DHT22;1893;52.526;13.360;2023-09-12T14:51:54;27.80;99.90
3756;DHT22;1893;52.526;13.360;2023-09-12T14:54:20;27.80;99.90
3756;DHT22;1893;52.526;13.360;2023-09-12T14:56:48;27.50;99.90
3756;DHT22;1893;52.526;13.360;2023-09-12T14:59:13;27.20;99.90
3756;DHT22;1893;52.526;13.360;2023-09-12T15:01:41;27.10;99.90
3756;DHT22;1893;52.526;13.360;2023-09-12T15:04:07;27.10;99.90
3756;DHT22;1893;52.526;13.360;2023-09-12T15:06:33;27.00;99.90
3756;DHT22;1893;52.526;13.360;2023-09-12T15:08:59;26.90;99.90
3756;DHT22;1893;52.526;13.360;2023-09-12T15:11:25;27.00;99.90
3756;DHT22;1893;52.526;13.360;2023-09-12T15:13:50;27.10;99.90
3756;DHT22;1893;52.526;13.360;2023-09-12T15:16:16;27.00;99.90
3756;DHT22;1893;52.526;13.360;2023-09-12T15:18:42;26.90;99.90
3756;DHT22;1893;52.526;13.360;2023-09-12T15:21:07;26.90;99.90
3756;DHT22;1893;52.526;13.360;2023-09-12T15:23:34;26.90;99.90
3756;DHT22;1893;52.526;13.360;2023-09-12T15:25:59;27.00;99.90
3756;DHT22;1893;52.526;13.360;2023-09-12T15:28:25;27.10;99.90
3756;DHT22;1893;52.526;13.360;2023-09-12T15:30:50;27.00;99.90
3756;DHT22;1893;52.526;13.360;2023-09-12T15:33:16;26.70;99.90
3756;DHT22;1893;52.526;13.360;2023-09-12T15:35:42;26.40;99.90
3756;DHT22;1893;52.526;13.360;2023-09-12T15:38:07;26.30;99.90
3756;DHT22;1893;52.526;13.360;2023-09-12T15:40:33;26.00;99.90
3756;DHT22;1893;52.526;13.360;2023-09-12T15:42:59;26.00;99.90
3756;DHT22;1893;52.526;13.360;2023-09-12T15:45:24;26.00;99.90
3756;DHT22;1893;52.526;13.360;2023-09-12T15:47:50;25.80;99.90
3756;DHT22;1893;52.526;13.360;2023-09-12T15:50:16;25.70;99.90
3756;DHT22;1893;52.526;13.360;2023-09-12T15:52:41;25.80;99.90
3756;DHT22;1893;52.526;13.360;2023-09-12T15:55:11;26.00;99.90
3756;DHT22;1893;52.526;13.360;2023-09-12T15:57:38;26.10;99.90
3756;DHT22;1893;52.526;13.360;2023-09-12T16:00:08;26.30;99.90
3756;DHT22;1893;52.526;13.360;2023-09-12T16:02:37;26.30;99.90
3756;DHT22;1893;52.526;13.360;2023-09-12T16:05:07;26.20;99.90
3756;DHT22;1893;52.526;13.360;2023-09-12T16:07:33;26.20;99.90